sensor_id;sensor_type;location;lat;lon;timestamp;pressure;altitude;pressure_sealevel;temperature;humidity
76022;BME280;64718;52.124;6.226;2023-02-01T00:01:17;101878.34;;;4.27;97.97
76022;BME280;64718;52.124;6.226;2023-02-01T00:03:43;101874.91;;;4.31;97.88
76022;BME280;64718;52.124;6.226;2023-02-01T00:06:10;101870.59;;;4.29;98.10
76022;BME280;64718;52.124;6.226;2023-02-01T00:08:36;101865.44;;;4.33;98.11
76022;BME280;64718;52.124;6.226;2023-02-01T00:11:05;101868.03;;;4.23;99.16
76022;BME280;64718;52.124;6.226;2023-02-01T00:13:35;101856.88;;;4.37;98.25
76022;BME280;64718;52.124;6.226;2023-02-01T00:16:04;101865.44;;;4.45;97.88
76022;BME280;64718;52.124;6.226;2023-02-01T00:18:31;101871.44;;;4.43;97.16
76022;BME280;64718;52.124;6.226;2023-02-01T00:20:57;101867.16;;;4.48;97.08
76022;BME280;64718;52.124;6.226;2023-02-01T00:23:24;101871.47;;;4.38;97.99
76022;BME280;64718;52.124;6.226;2023-02-01T00:25:50;101864.59;;;4.40;97.88
76022;BME280;64718;52.124;6.226;2023-02-01T00:28:17;101864.59;;;4.37;98.13
76022;BME280;64718;52.124;6.226;2023-02-01T00:30:45;101862.88;;;4.38;97.94
76022;BME280;64718;52.124;6.226;2023-02-01T00:33:11;101851.72;;;4.39;98.00
76022;BME280;64718;52.124;6.226;2023-02-01T00:35:38;101854.28;;;4.51;97.67
76022;BME280;64718;52.124;6.226;2023-02-01T00:38:04;101851.69;;;4.53;97.17
76022;BME280;64718;52.124;6.226;2023-02-01T00:40:31;101852.56;;;4.52;97.23
76022;BME280;64718;52.124;6.226;2023-02-01T00:42:57;101845.69;;;4.49;96.57
76022;BME280;64718;52.124;6.226;2023-02-01T00:45:24;101849.97;;;4.50;96.78
76022;BME280;64718;52.124;6.226;2023-02-01T00:47:52;101855.13;;;4.49;97.57
76022;BME280;64718;52.124;6.226;2023-02-01T00:50:18;101844.81;;;4.56;96.91
76022;BME280;64718;52.124;6.226;2023-02-01T00:52:45;101849.97;;;4.55;97.27
76022;BME280;64718;52.124;6.226;2023-02-01T00:55:11;101849.13;;;4.65;96.39
76022;BME280;64718;52.124;6.226;2023-02-01T00:57:38;101849.13;;;4.54;97.27
76022;BME280;64718;52.124;6.226;2023-02-01T01:00:05;101861.16;;;4.66;96.17
76022;BME280;64718;52.124;6.226;2023-02-01T01:02:32;101867.13;;;4.57;97.04
76022;BME280;64718;52.124;6.226;2023-02-01T01:05:00;101849.97;;;4.65;96.10
76022;BME280;64718;52.124;6.226;2023-02-01T01:07:27;101859.44;;;4.66;96.02
76022;BME280;64718;52.124;6.226;2023-02-01T01:09:53;101861.13;;;4.72;95.66
76022;BME280;64718;52.124;6.226;2023-02-01T01:12:20;101849.13;;;4.65;95.90
76022;BME280;64718;52.124;6.226;2023-02-01T01:14:46;101850.84;;;4.64;96.05
76022;BME280;64718;52.124;6.226;2023-02-01T01:17:13;101843.97;;;4.66;95.90
76022;BME280;64718;52.124;6.226;2023-02-01T01:19:40;101843.06;;;4.78;95.16
76022;BME280;64718;52.124;6.226;2023-02-01T01:22:07;101843.94;;;4.75;95.71
76022;BME280;64718;52.124;6.226;2023-02-01T01:24:34;101841.38;;;4.72;95.51
76022;BME280;64718;52.124;6.226;2023-02-01T01:27:01;101832.78;;;4.60;95.77
76022;BME280;64718;52.124;6.226;2023-02-01T01:29:28;101822.47;;;4.57;95.92
76022;BME280;64718;52.124;6.226;2023-02-01T01:31:54;101819.91;;;4.55;96.05
76022;BME280;64718;52.124;6.226;2023-02-01T01:34:21;101813.03;;;4.56;95.87
76022;BME280;64718;52.124;6.226;2023-02-01T01:36:47;101817.34;;;4.66;95.66
76022;BME280;64718;52.124;6.226;2023-02-01T01:39:15;101811.28;;;4.78;94.98
76022;BME280;64718;52.124;6.226;2023-02-01T01:41:42;101825.03;;;4.78;94.96
76022;BME280;64718;52.124;6.226;2023-02-01T01:47:08;101814.72;;;4.78;95.18
76022;BME280;64718;52.124;6.226;2023-02-01T01:49:36;101808.75;;;4.53;96.33
76022;BME280;64718;52.124;6.226;2023-02-01T01:52:03;101807.06;;;4.40;96.39
76022;BME280;64718;52.124;6.226;2023-02-01T01:54:34;101803.66;;;4.32;97.00
76022;BME280;64718;52.124;6.226;2023-02-01T01:57:05;101794.16;;;4.54;97.05
76022;BME280;64718;52.124;6.226;2023-02-01T01:59:34;101787.28;;;4.51;96.32
76022;BME280;64718;52.124;6.226;2023-02-01T02:02:02;101796.78;;;4.37;96.90
76022;BME280;64718;52.124;6.226;2023-02-01T02:04:28;101805.34;;;4.37;96.85
76022;BME280;64718;52.124;6.226;2023-02-01T02:06:59;101794.16;;;4.52;96.05
76022;BME280;64718;52.124;6.226;2023-02-01T02:09:27;101795.00;;;4.56;96.21
76022;BME280;64718;52.124;6.226;2023-02-01T02:11:54;101798.47;;;4.47;97.08
76022;BME280;64718;52.124;6.226;2023-02-01T02:14:23;101798.50;;;4.36;97.20
76022;BME280;64718;52.124;6.226;2023-02-01T02:17:00;101789.91;;;4.30;97.49
76022;BME280;64718;52.124;6.226;2023-02-01T02:19:56;101790.75;;;4.47;96.42
76022;BME280;64718;52.124;6.226;2023-02-01T02:22:48;101778.69;;;4.60;96.28
76022;BME280;64718;52.124;6.226;2023-02-01T02:25:46;101774.38;;;4.62;95.61
76022;BME280;64718;52.124;6.226;2023-02-01T02:28:33;101758.09;;;4.64;95.91
76022;BME280;64718;52.124;6.226;2023-02-01T02:31:24;101759.78;;;4.59;96.84
76022;BME280;64718;52.124;6.226;2023-02-01T02:33:59;101758.94;;;4.60;95.85
76022;BME280;64718;52.124;6.226;2023-02-01T02:36:33;101758.94;;;4.63;95.61
76022;BME280;64718;52.124;6.226;2023-02-01T02:39:06;101763.28;;;4.46;96.61
76022;BME280;64718;52.124;6.226;2023-02-01T02:41:43;101762.41;;;4.50;97.13
76022;BME280;64718;52.124;6.226;2023-02-01T02:44:37;101763.25;;;4.48;96.91
76022;BME280;64718;52.124;6.226;2023-02-01T02:47:29;101760.66;;;4.57;96.82
76022;BME280;64718;52.124;6.226;2023-02-01T02:50:15;101758.09;;;4.63;95.79
76022;BME280;64718;52.124;6.226;2023-02-01T02:53:05;101746.06;;;4.59;96.83
76022;BME280;64718;52.124;6.226;2023-02-01T02:55:55;101748.63;;;4.66;95.93
76022;BME280;64718;52.124;6.226;2023-02-01T02:58:40;101743.47;;;4.62;96.22
76022;BME280;64718;52.124;6.226;2023-02-01T03:01:27;101746.06;;;4.66;96.28
76022;BME280;64718;52.124;6.226;2023-02-01T03:04:11;101740.84;;;4.77;95.66
76022;BME280;64718;52.124;6.226;2023-02-01T03:06:44;101733.13;;;4.80;96.44
76022;BME280;64718;52.124;6.226;2023-02-01T03:09:16;101732.25;;;4.80;96.35
76022;BME280;64718;52.124;6.226;2023-02-01T03:11:47;101719.41;;;4.72;96.73
76022;BME280;64718;52.124;6.226;2023-02-01T03:14:41;101725.44;;;4.59;97.28
76022;BME280;64718;52.124;6.226;2023-02-01T03:17:14;101724.63;;;4.51;97.83
76022;BME280;64718;52.124;6.226;2023-02-01T03:19:45;101715.97;;;4.62;97.28
76022;BME280;64718;52.124;6.226;2023-02-01T03:22:18;101722.88;;;4.68;96.68
76022;BME280;64718;52.124;6.226;2023-02-01T03:24:47;101713.41;;;4.59;97.51
76022;BME280;64718;52.124;6.226;2023-02-01T03:27:17;101733.16;;;4.60;97.75
76022;BME280;64718;52.124;6.226;2023-02-01T03:29:50;101731.44;;;4.68;96.94
76022;BME280;64718;52.124;6.226;2023-02-01T03:32:19;101737.44;;;4.75;96.71
76022;BME280;64718;52.124;6.226;2023-02-01T03:34:46;101742.56;;;4.81;97.03
76022;BME280;64718;52.124;6.226;2023-02-01T03:37:18;101742.56;;;4.80;96.87
76022;BME280;64718;52.124;6.226;2023-02-01T03:39:49;101746.00;;;4.79;97.44
76022;BME280;64718;52.124;6.226;2023-02-01T03:42:24;101734.84;;;4.76;97.68
76022;BME280;64718;52.124;6.226;2023-02-01T03:44:57;101733.94;;;4.85;96.94
76022;BME280;64718;52.124;6.226;2023-02-01T03:47:28;101727.13;;;4.76;97.89
76022;BME280;64718;52.124;6.226;2023-02-01T03:49:58;101726.25;;;4.79;97.50
76022;BME280;64718;52.124;6.226;2023-02-01T03:52:29;101728.84;;;4.76;97.62
76022;BME280;64718;52.124;6.226;2023-02-01T03:54:57;101718.50;;;4.79;97.43
76022;BME280;64718;52.124;6.226;2023-02-01T03:57:28;101731.44;;;4.73;97.16
76022;BME280;64718;52.124;6.226;2023-02-01T04:00:04;101714.16;;;4.89;96.09
76022;BME280;64718;52.124;6.226;2023-02-01T04:02:32;101718.47;;;4.88;95.82
76022;BME280;64718;52.124;6.226;2023-02-01T04:04:59;101707.25;;;4.97;95.39
76022;BME280;64718;52.124;6.226;2023-02-01T04:07:27;101709.91;;;4.80;96.24
76022;BME280;64718;52.124;6.226;2023-02-01T04:09:53;101715.09;;;4.72;96.95
76022;BME280;64718;52.124;6.226;2023-02-01T04:12:20;101719.34;;;4.83;96.39
76022;BME280;64718;52.124;6.226;2023-02-01T04:14:47;101717.59;;;4.89;96.36
76022;BME280;64718;52.124;6.226;2023-02-01T04:17:14;101725.28;;;4.98;95.47
76022;BME280;64718;52.124;6.226;2023-02-01T04:19:40;101726.94;;;5.08;95.21
76022;BME280;64718;52.124;6.226;2023-02-01T04:22:07;101731.19;;;5.19;94.26
76022;BME280;64718;52.124;6.226;2023-02-01T04:24:36;101740.63;;;5.24;94.13
76022;BME280;64718;52.124;6.226;2023-02-01T04:27:02;101719.13;;;5.28;94.48
76022;BME280;64718;52.124;6.226;2023-02-01T04:29:29;101733.59;;;5.46;93.66
76022;BME280;64718;52.124;6.226;2023-02-01T04:31:55;101726.75;;;5.44;93.84
76022;BME280;64718;52.124;6.226;2023-02-01T04:34:22;101721.47;;;5.57;93.43
76022;BME280;64718;52.124;6.226;2023-02-01T04:36:50;101718.91;;;5.57;92.90
76022;BME280;64718;52.124;6.226;2023-02-01T04:39:17;101721.38;;;5.69;92.82
76022;BME280;64718;52.124;6.226;2023-02-01T04:41:45;101723.88;;;5.80;91.59
76022;BME280;64718;52.124;6.226;2023-02-01T04:44:14;101720.41;;;5.86;91.51
76022;BME280;64718;52.124;6.226;2023-02-01T04:46:41;101729.00;;;5.89;91.16
76022;BME280;64718;52.124;6.226;2023-02-01T04:49:08;101730.69;;;5.92;90.79
76022;BME280;64718;52.124;6.226;2023-02-01T04:51:35;101742.63;;;6.03;90.17
76022;BME280;64718;52.124;6.226;2023-02-01T04:54:01;101741.91;;;5.89;91.09
76022;BME280;64718;52.124;6.226;2023-02-01T04:56:28;101735.84;;;5.89;91.27
76022;BME280;64718;52.124;6.226;2023-02-01T04:58:56;101728.13;;;5.90;91.14
76022;BME280;64718;52.124;6.226;2023-02-01T05:01:23;101735.00;;;5.93;90.73
76022;BME280;64718;52.124;6.226;2023-02-01T05:03:49;101744.44;;;5.94;91.38
76022;BME280;64718;52.124;6.226;2023-02-01T05:06:16;101723.81;;;5.88;91.16
76022;BME280;64718;52.124;6.226;2023-02-01T05:08:43;101726.44;;;5.85;91.60
76022;BME280;64718;52.124;6.226;2023-02-01T05:11:09;101721.25;;;5.89;91.25
76022;BME280;64718;52.124;6.226;2023-02-01T05:13:58;101700.53;;;5.95;90.95
76022;BME280;64718;52.124;6.226;2023-02-01T05:16:24;101710.94;;;5.86;91.19
76022;BME280;64718;52.124;6.226;2023-02-01T05:18:51;101704.91;;;5.86;91.10
76022;BME280;64718;52.124;6.226;2023-02-01T05:21:18;101710.97;;;5.77;91.52
76022;BME280;64718;52.124;6.226;2023-02-01T05:23:45;101709.28;;;5.75;91.34
76022;BME280;64718;52.124;6.226;2023-02-01T05:26:29;101714.47;;;5.70;91.69
76022;BME280;64718;52.124;6.226;2023-02-01T05:28:55;101706.69;;;5.75;91.21
76022;BME280;64718;52.124;6.226;2023-02-01T05:31:24;101705.84;;;5.74;91.21
76022;BME280;64718;52.124;6.226;2023-02-01T05:33:51;101693.00;;;5.66;91.89
76022;BME280;64718;52.124;6.226;2023-02-01T05:36:17;101704.97;;;5.75;91.69
76022;BME280;64718;52.124;6.226;2023-02-01T05:38:44;101701.44;;;5.88;91.41
76022;BME280;64718;52.124;6.226;2023-02-01T05:41:10;101690.28;;;5.89;91.50
76022;BME280;64718;52.124;6.226;2023-02-01T05:43:37;101691.97;;;5.93;90.98
76022;BME280;64718;52.124;6.226;2023-02-01T05:46:04;101694.56;;;5.89;91.26
76022;BME280;64718;52.124;6.226;2023-02-01T05:48:32;101705.75;;;5.88;91.46
76022;BME280;64718;52.124;6.226;2023-02-01T05:50:58;101704.88;;;5.92;91.39
76022;BME280;64718;52.124;6.226;2023-02-01T05:53:25;101715.16;;;5.96;91.73
76022;BME280;64718;52.124;6.226;2023-02-01T05:55:51;101709.16;;;5.96;91.89
76022;BME280;64718;52.124;6.226;2023-02-01T05:58:18;101720.28;;;6.01;91.67
76022;BME280;64718;52.124;6.226;2023-02-01T06:00:44;101721.09;;;6.05;91.29
76022;BME280;64718;52.124;6.226;2023-02-01T06:03:11;101712.56;;;5.99;91.77
76022;BME280;64718;52.124;6.226;2023-02-01T06:05:39;101721.91;;;6.11;91.39
76022;BME280;64718;52.124;6.226;2023-02-01T06:08:05;101720.22;;;6.09;91.53
76022;BME280;64718;52.124;6.226;2023-02-01T06:10:32;101724.50;;;6.08;91.30
76022;BME280;64718;52.124;6.226;2023-02-01T06:12:59;101717.66;;;6.04;91.52
76022;BME280;64718;52.124;6.226;2023-02-01T06:15:25;101712.50;;;6.04;91.71
76022;BME280;64718;52.124;6.226;2023-02-01T06:17:52;101720.28;;;6.02;91.98
76022;BME280;64718;52.124;6.226;2023-02-01T06:20:19;101721.13;;;6.01;91.91
76022;BME280;64718;52.124;6.226;2023-02-01T06:22:47;101721.09;;;6.06;91.35
76022;BME280;64718;52.124;6.226;2023-02-01T06:25:13;101717.69;;;6.01;92.09
76022;BME280;64718;52.124;6.226;2023-02-01T06:27:41;101723.75;;;5.98;91.89
76022;BME280;64718;52.124;6.226;2023-02-01T06:30:11;101722.03;;;5.97;91.95
76022;BME280;64718;52.124;6.226;2023-02-01T06:32:38;101718.59;;;5.98;92.14
76022;BME280;64718;52.124;6.226;2023-02-01T06:35:06;101714.31;;;5.94;92.77
76022;BME280;64718;52.124;6.226;2023-02-01T06:37:36;101727.16;;;6.00;92.39
76022;BME280;64718;52.124;6.226;2023-02-01T06:40:05;101725.47;;;5.99;91.95
76022;BME280;64718;52.124;6.226;2023-02-01T06:42:32;101719.53;;;5.91;92.21
76022;BME280;64718;52.124;6.226;2023-02-01T06:44:59;101719.53;;;5.90;92.14
76022;BME280;64718;52.124;6.226;2023-02-01T06:47:25;101729.03;;;5.82;92.70
76022;BME280;64718;52.124;6.226;2023-02-01T06:49:52;101728.06;;;5.98;91.70
76022;BME280;64718;52.124;6.226;2023-02-01T06:52:18;101733.25;;;5.96;91.91
76022;BME280;64718;52.124;6.226;2023-02-01T06:54:45;101734.13;;;5.94;92.00
76022;BME280;64718;52.124;6.226;2023-02-01T06:57:14;101747.94;;;5.85;92.62
76022;BME280;64718;52.124;6.226;2023-02-01T06:59:40;101737.72;;;5.68;92.93
76022;BME280;64718;52.124;6.226;2023-02-01T07:02:09;101734.31;;;5.63;93.60
76022;BME280;64718;52.124;6.226;2023-02-01T07:04:36;101742.91;;;5.65;93.82
76022;BME280;64718;52.124;6.226;2023-02-01T07:07:03;101741.94;;;5.82;93.16
76022;BME280;64718;52.124;6.226;2023-02-01T07:09:29;101754.84;;;5.83;93.11
76022;BME280;64718;52.124;6.226;2023-02-01T07:11:56;101747.97;;;5.81;93.18
76022;BME280;64718;52.124;6.226;2023-02-01T07:14:24;101752.38;;;5.66;93.37
76022;BME280;64718;52.124;6.226;2023-02-01T07:16:50;101748.09;;;5.64;93.77
76022;BME280;64718;52.124;6.226;2023-02-01T07:19:17;101748.16;;;5.55;94.20
76022;BME280;64718;52.124;6.226;2023-02-01T07:21:43;101747.34;;;5.50;94.17
76022;BME280;64718;52.124;6.226;2023-02-01T07:24:10;101740.44;;;5.50;94.26
76022;BME280;64718;52.124;6.226;2023-02-01T07:26:36;101754.16;;;5.55;94.67
76022;BME280;64718;52.124;6.226;2023-02-01T07:29:03;101761.84;;;5.63;94.58
76022;BME280;64718;52.124;6.226;2023-02-01T07:31:31;101758.34;;;5.73;93.81
76022;BME280;64718;52.124;6.226;2023-02-01T07:33:57;101760.09;;;5.68;94.16
76022;BME280;64718;52.124;6.226;2023-02-01T07:36:25;101760.03;;;5.74;94.44
76022;BME280;64718;52.124;6.226;2023-02-01T07:38:51;101767.75;;;5.83;93.94
76022;BME280;64718;52.124;6.226;2023-02-01T07:41:18;101746.25;;;5.81;93.97
76022;BME280;64718;52.124;6.226;2023-02-01T07:43:45;101754.91;;;5.71;94.31
76022;BME280;64718;52.124;6.226;2023-02-01T07:46:12;101771.25;;;5.71;94.21
76022;BME280;64718;52.124;6.226;2023-02-01T07:48:41;101765.19;;;5.79;94.58
76022;BME280;64718;52.124;6.226;2023-02-01T07:51:10;101780.66;;;5.77;94.47
76022;BME280;64718;52.124;6.226;2023-02-01T07:53:37;101777.25;;;5.80;94.13
76022;BME280;64718;52.124;6.226;2023-02-01T07:56:08;101763.47;;;5.75;94.48
76022;BME280;64718;52.124;6.226;2023-02-01T07:58:36;101770.41;;;5.69;94.55
76022;BME280;64718;52.124;6.226;2023-02-01T08:01:02;101770.44;;;5.66;94.30
76022;BME280;64718;52.124;6.226;2023-02-01T08:03:51;101772.19;;;5.63;94.58
76022;BME280;64718;52.124;6.226;2023-02-01T08:06:18;101762.66;;;5.69;94.42
76022;BME280;64718;52.124;6.226;2023-02-01T08:08:45;101774.69;;;5.72;94.21
76022;BME280;64718;52.124;6.226;2023-02-01T08:11:13;101770.41;;;5.68;94.69
76022;BME280;64718;52.124;6.226;2023-02-01T08:13:40;101780.69;;;5.79;94.20
76022;BME280;64718;52.124;6.226;2023-02-01T08:16:08;101773.72;;;5.88;93.67
76022;BME280;64718;52.124;6.226;2023-02-01T08:18:37;101772.00;;;5.89;93.78
76022;BME280;64718;52.124;6.226;2023-02-01T08:21:06;101773.78;;;5.76;94.25
76022;BME280;64718;52.124;6.226;2023-02-01T08:23:33;101777.25;;;5.75;94.47
76022;BME280;64718;52.124;6.226;2023-02-01T08:26:05;101780.66;;;5.82;94.33
76022;BME280;64718;52.124;6.226;2023-02-01T08:28:32;101781.44;;;5.96;93.88
76022;BME280;64718;52.124;6.226;2023-02-01T08:30:59;101769.25;;;6.10;93.23
76022;BME280;64718;52.124;6.226;2023-02-01T08:33:29;101770.75;;;6.32;92.28
76022;BME280;64718;52.124;6.226;2023-02-01T08:35:56;101777.50;;;6.50;91.56
76022;BME280;64718;52.124;6.226;2023-02-01T08:38:24;101769.72;;;6.52;91.48
76022;BME280;64718;52.124;6.226;2023-02-01T08:40:50;101774.84;;;6.56;91.01
76022;BME280;64718;52.124;6.226;2023-02-01T08:43:18;101767.97;;;6.54;91.38
76022;BME280;64718;52.124;6.226;2023-02-01T08:45:45;101767.97;;;6.55;91.24
76022;BME280;64718;52.124;6.226;2023-02-01T08:48:11;101748.22;;;6.50;90.84
76022;BME280;64718;52.124;6.226;2023-02-01T08:50:38;101751.69;;;6.47;91.66
76022;BME280;64718;52.124;6.226;2023-02-01T08:53:04;101756.84;;;6.47;91.46
76022;BME280;64718;52.124;6.226;2023-02-01T08:55:32;101740.47;;;6.50;91.32
76022;BME280;64718;52.124;6.226;2023-02-01T08:57:59;101742.09;;;6.57;91.52
76022;BME280;64718;52.124;6.226;2023-02-01T09:00:25;101731.69;;;6.61;91.32
76022;BME280;64718;52.124;6.226;2023-02-01T09:02:52;101737.75;;;6.59;91.25
76022;BME280;64718;52.124;6.226;2023-02-01T09:05:18;101730.00;;;6.59;90.46
76022;BME280;64718;52.124;6.226;2023-02-01T09:07:47;101731.69;;;6.61;90.99
76022;BME280;64718;52.124;6.226;2023-02-01T09:10:13;101745.47;;;6.62;90.58
76022;BME280;64718;52.124;6.226;2023-02-01T09:12:41;101748.78;;;6.75;90.51
76022;BME280;64718;52.124;6.226;2023-02-01T09:15:08;101745.13;;;6.89;90.55
76022;BME280;64718;52.124;6.226;2023-02-01T09:17:35;101742.53;;;6.94;90.10
76022;BME280;64718;52.124;6.226;2023-02-01T09:20:03;101732.25;;;6.85;89.95
76022;BME280;64718;52.124;6.226;2023-02-01T09:22:30;101735.63;;;6.91;90.01
76022;BME280;64718;52.124;6.226;2023-02-01T09:24:56;101745.09;;;6.95;89.82
76022;BME280;64718;52.124;6.226;2023-02-01T09:27:23;101735.56;;;6.99;88.97
76022;BME280;64718;52.124;6.226;2023-02-01T09:29:51;101740.66;;;7.05;89.08
76022;BME280;64718;52.124;6.226;2023-02-01T09:32:19;101727.63;;;7.11;89.09
76022;BME280;64718;52.124;6.226;2023-02-01T09:34:45;101732.72;;;7.17;88.98
76022;BME280;64718;52.124;6.226;2023-02-01T09:37:12;101740.47;;;7.17;88.63
76022;BME280;64718;52.124;6.226;2023-02-01T09:39:38;101730.06;;;7.22;88.78
76022;BME280;64718;52.124;6.226;2023-02-01T09:42:14;101736.13;;;7.19;88.00
76022;BME280;64718;52.124;6.226;2023-02-01T09:47:38;101727.44;;;7.23;88.81
76022;BME280;64718;52.124;6.226;2023-02-01T09:50:12;101735.34;;;7.14;88.69
76022;BME280;64718;52.124;6.226;2023-02-01T09:52:44;101750.09;;;7.08;88.81
76022;BME280;64718;52.124;6.226;2023-02-01T09:55:16;101744.06;;;7.07;88.83
76022;BME280;64718;52.124;6.226;2023-02-01T09:57:50;101750.13;;;7.05;89.45
76022;BME280;64718;52.124;6.226;2023-02-01T10:00:23;101739.84;;;7.00;89.05
76022;BME280;64718;52.124;6.226;2023-02-01T10:02:54;101744.97;;;7.03;89.32
76022;BME280;64718;52.124;6.226;2023-02-01T10:05:30;101728.66;;;7.00;89.68
76022;BME280;64718;52.124;6.226;2023-02-01T10:08:09;101743.31;;;6.99;89.63
76022;BME280;64718;52.124;6.226;2023-02-01T10:10:41;101738.13;;;6.99;89.40
76022;BME280;64718;52.124;6.226;2023-02-01T10:13:17;101719.22;;;6.95;88.90
76022;BME280;64718;52.124;6.226;2023-02-01T10:15:58;101727.84;;;6.94;89.33
76022;BME280;64718;52.124;6.226;2023-02-01T10:18:45;101728.69;;;6.96;89.55
76022;BME280;64718;52.124;6.226;2023-02-01T10:21:20;101723.56;;;6.92;89.55
76022;BME280;64718;52.124;6.226;2023-02-01T10:24:17;101740.81;;;6.90;90.11
76022;BME280;64718;52.124;6.226;2023-02-01T10:26:51;101722.75;;;6.88;89.22
76022;BME280;64718;52.124;6.226;2023-02-01T10:29:22;101727.06;;;6.88;89.92
76022;BME280;64718;52.124;6.226;2023-02-01T10:31:52;101724.50;;;6.85;89.75
76022;BME280;64718;52.124;6.226;2023-02-01T10:34:22;101722.91;;;6.76;91.73
76022;BME280;64718;52.124;6.226;2023-02-01T10:36:54;101711.94;;;6.56;95.48
76022;BME280;64718;52.124;6.226;2023-02-01T10:39:22;101715.63;;;6.37;96.27
76022;BME280;64718;52.124;6.226;2023-02-01T10:41:49;101701.03;;;6.29;96.95
76022;BME280;64718;52.124;6.226;2023-02-01T10:44:18;101703.69;;;6.25;98.88
76022;BME280;64718;52.124;6.226;2023-02-01T10:46:47;101704.63;;;6.16;98.92
76022;BME280;64718;52.124;6.226;2023-02-01T10:49:18;101709.00;;;6.11;99.87
76022;BME280;64718;52.124;6.226;2023-02-01T10:51:51;101711.59;;;6.08;100.00
76022;BME280;64718;52.124;6.226;2023-02-01T10:54:20;101711.66;;;6.03;100.00
76022;BME280;64718;52.124;6.226;2023-02-01T10:56:48;101720.31;;;5.96;100.00
76022;BME280;64718;52.124;6.226;2023-02-01T10:59:17;101717.78;;;5.93;100.00
76022;BME280;64718;52.124;6.226;2023-02-01T11:01:46;101722.09;;;5.91;100.00
76022;BME280;64718;52.124;6.226;2023-02-01T11:04:14;101705.78;;;5.83;100.00
76022;BME280;64718;52.124;6.226;2023-02-01T11:06:43;101705.81;;;5.77;100.00
76022;BME280;64718;52.124;6.226;2023-02-01T11:09:18;101706.69;;;5.75;100.00
76022;BME280;64718;52.124;6.226;2023-02-01T11:11:57;101687.81;;;5.69;100.00
76022;BME280;64718;52.124;6.226;2023-02-01T11:14:33;101682.69;;;5.68;100.00
76022;BME280;64718;52.124;6.226;2023-02-01T11:17:02;101685.28;;;5.65;100.00
76022;BME280;64718;52.124;6.226;2023-02-01T11:19:28;101703.28;;;5.72;100.00
76022;BME280;64718;52.124;6.226;2023-02-01T11:21:57;101696.38;;;5.75;100.00
76022;BME280;64718;52.124;6.226;2023-02-01T11:24:29;101680.00;;;5.82;100.00
76022;BME280;64718;52.124;6.226;2023-02-01T11:26:59;101686.88;;;5.83;100.00
76022;BME280;64718;52.124;6.226;2023-02-01T11:29:27;101673.06;;;5.85;100.00
76022;BME280;64718;52.124;6.226;2023-02-01T11:31:57;101672.19;;;5.86;100.00
76022;BME280;64718;52.124;6.226;2023-02-01T11:34:36;101666.13;;;5.95;100.00
76022;BME280;64718;52.124;6.226;2023-02-01T11:37:04;101654.06;;;5.95;100.00
76022;BME280;64718;52.124;6.226;2023-02-01T11:39:33;101668.69;;;5.95;100.00
76022;BME280;64718;52.124;6.226;2023-02-01T11:42:04;101668.72;;;5.93;100.00
76022;BME280;64718;52.124;6.226;2023-02-01T11:44:34;101665.28;;;5.94;100.00
76022;BME280;64718;52.124;6.226;2023-02-01T11:47:22;101660.13;;;5.93;100.00
76022;BME280;64718;52.124;6.226;2023-02-01T11:49:51;101669.53;;;5.97;100.00
76022;BME280;64718;52.124;6.226;2023-02-01T11:52:32;101660.78;;;6.10;100.00
76022;BME280;64718;52.124;6.226;2023-02-01T11:55:14;101660.78;;;6.10;100.00
76022;BME280;64718;52.124;6.226;2023-02-01T11:57:52;101665.97;;;6.10;100.00
76022;BME280;64718;52.124;6.226;2023-02-01T12:00:35;101658.94;;;6.21;100.00
76022;BME280;64718;52.124;6.226;2023-02-01T12:03:26;101652.63;;;6.47;98.96
76022;BME280;64718;52.124;6.226;2023-02-01T12:06:06;101660.06;;;6.71;97.19
76022;BME280;64718;52.124;6.226;2023-02-01T12:08:50;101651.22;;;6.86;95.65
76022;BME280;64718;52.124;6.226;2023-02-01T12:11:35;101656.25;;;6.98;96.19
76022;BME280;64718;52.124;6.226;2023-02-01T12:14:17;101639.81;;;7.02;95.74
76022;BME280;64718;52.124;6.226;2023-02-01T12:17:10;101641.50;;;7.05;95.06
76022;BME280;64718;52.124;6.226;2023-02-01T12:19:52;101655.25;;;7.08;94.97
76022;BME280;64718;52.124;6.226;2023-02-01T12:22:35;101653.59;;;7.03;95.63
76022;BME280;64718;52.124;6.226;2023-02-01T12:25:19;101634.66;;;7.02;95.00
76022;BME280;64718;52.124;6.226;2023-02-01T12:28:14;101655.25;;;7.07;94.99
76022;BME280;64718;52.124;6.226;2023-02-01T12:30:52;101654.34;;;7.11;95.09
76022;BME280;64718;52.124;6.226;2023-02-01T12:33:30;101648.34;;;7.09;94.43
76022;BME280;64718;52.124;6.226;2023-02-01T12:36:10;101657.81;;;7.08;94.90
76022;BME280;64718;52.124;6.226;2023-02-01T12:38:48;101649.22;;;7.08;95.66
76022;BME280;64718;52.124;6.226;2023-02-01T12:41:30;101642.41;;;7.02;95.29
76022;BME280;64718;52.124;6.226;2023-02-01T12:44:03;101652.72;;;7.04;94.93
76022;BME280;64718;52.124;6.226;2023-02-01T12:46:37;101643.13;;;7.10;94.40
76022;BME280;64718;52.124;6.226;2023-02-01T12:49:11;101637.91;;;7.13;93.99
76022;BME280;64718;52.124;6.226;2023-02-01T12:51:44;101640.44;;;7.18;93.89
76022;BME280;64718;52.124;6.226;2023-02-01T12:54:15;101626.50;;;7.25;93.38
76022;BME280;64718;52.124;6.226;2023-02-01T12:56:46;101626.44;;;7.29;92.94
76022;BME280;64718;52.124;6.226;2023-02-01T12:59:21;101629.00;;;7.31;92.85
76022;BME280;64718;52.124;6.226;2023-02-01T13:01:54;101623.81;;;7.31;93.13
76022;BME280;64718;52.124;6.226;2023-02-01T13:04:28;101621.25;;;7.29;93.08
76022;BME280;64718;52.124;6.226;2023-02-01T13:07:01;101626.38;;;7.34;92.55
76022;BME280;64718;52.124;6.226;2023-02-01T13:09:34;101634.25;;;7.26;93.67
76022;BME280;64718;52.124;6.226;2023-02-01T13:12:08;101642.22;;;7.14;94.64
76022;BME280;64718;52.124;6.226;2023-02-01T13:14:43;101624.25;;;7.05;94.88
76022;BME280;64718;52.124;6.226;2023-02-01T13:17:15;101632.00;;;7.05;95.05
76022;BME280;64718;52.124;6.226;2023-02-01T13:19:45;101632.09;;;7.01;96.43
76022;BME280;64718;52.124;6.226;2023-02-01T13:22:18;101629.56;;;6.93;97.36
76022;BME280;64718;52.124;6.226;2023-02-01T13:24:48;101639.97;;;6.90;98.26